TAF and METAR

METAR for Gorgan Airport

OING 192000Z 20006KT CAVOK 16/14 Q1020
Report created 19. okt 22:00
wind 6 knots from SSW (200°) Clear sky Temperature 16° with dewpoint at 14° (Humidity 87.94%) Pressure 1020 hPa
No TAF available for Gorgan Airport